M I D A S
Marine Information and Data Acquisition System
Tripno 1075 of the Zeeleeuw from 2006-04-25 06:35:23 to 2006-04-25 15:41:12
Back to CruiseResearch ActivitiesStationsMapUnderway DataData graphs

EquipmentUnitsComment
TimeDGPSUTC
LatitudeDGPSDM.mWGS84
LongitudeDGPSDM.mWGS84
TemperatureSBE03/SBE38deg celciusITS90
ConductivitySBE21S/mITS90
SalinitySBE21 Practical Salinity Units
ChlorophylAChelsea fluorimeterg/lCalibrated in Aceton
Missing or incorrect values are displayed as -999
Sea surface data collected by the RV Zeeleeuw from 2006-04-25 06:35:04 to 2006-04-25 15:53:21
Time Latitude Longitude Temperature Conductivity Salinity ChlorophylA
2006-04-25 06:36:11 51°13.614 2°56.043 10.8621 3.327475 29.178017 30.871879
2006-04-25 06:37:11 51°13.639 2°55.933 10.8543 3.334636 29.301707 32.017999
2006-04-25 06:38:11 51°13.681 2°55.82 10.8054 3.318842 29.163262 31.613486
2006-04-25 06:39:10 51°13.707 2°55.743 10.8802 3.301362 29.006493 32.253965
2006-04-25 06:40:10 51°13.719 2°55.76 10.9327 3.250717 28.475854 32.827024
2006-04-25 06:41:11 51°13.699 2°55.745 10.9206 3.208076 28.020241 33.231537
2006-04-25 06:42:11 51°13.714 2°55.733 10.9738 3.256613 28.528049 33.231537
2006-04-25 06:43:10 51°13.785 2°55.674 11.0537 3.177966 27.71152 33.164118
2006-04-25 06:44:11 51°13.882 2°55.599 10.9638 3.075751 26.637673 33.602341
2006-04-25 06:45:11 51°13.987 2°55.523 10.9859 3.221867 28.126023 32.52364
2006-04-25 06:46:10 51°14.098 2°55.446 10.9481 3.236502 28.294405 32.48993
2006-04-25 06:47:11 51°14.208 2°55.347 10.9497 3.231765 28.267621 34.512494
2006-04-25 06:48:11 51°14.301 2°55.197 10.984 3.161122 27.540828 34.411366
2006-04-25 06:49:10 51°14.398 2°55.023 10.8683 3.177967 27.753688 34.512494
2006-04-25 06:50:10 51°14.486 2°54.802 10.5257 3.237662 28.424194 34.040563
2006-04-25 06:51:10 51°14.476 2°54.506 10.3344 3.400142 30.286838 33.737178
2006-04-25 06:52:10 51°14.365 2°54.203 10.3151 3.457961 30.931677 32.827024
2006-04-25 06:53:10 51°14.255 2°53.891 10.2491 3.473866 31.157874 32.759606
2006-04-25 06:54:10 51°14.141 2°53.577 10.2404 3.476815 31.212862 32.422512
2006-04-25 06:55:10 51°14.019 2°53.269 10.2572 3.486716 31.326146 31.984289
2006-04-25 06:56:10 51°13.908 2°52.953 10.2816 3.49135 31.33546 31.41123
2006-04-25 06:57:10 51°13.81 2°52.624 10.3 3.503357 31.453028 30.703332
2006-04-25 06:58:10 51°13.697 2°52.308 10.3234 3.505463 31.457968 30.197691
2006-04-25 06:59:10 51°13.591 2°51.99 10.3377 3.515153 31.527263 29.557212
2006-04-25 07:00:10 51°13.486 2°51.672 10.3609 3.518418 31.552791 29.422375
2006-04-25 07:01:10 51°13.371 2°51.364 10.3813 3.522421 31.573766 29.489794
2006-04-25 07:02:10 51°13.263 2°51.051 10.4024 3.527476 31.601008 29.422375
2006-04-25 07:03:10 51°13.152 2°50.741 10.422 3.5398 31.710319 29.456084
2006-04-25 07:04:10 51°13.038 2°50.433 10.4482 3.535481 31.654053 29.658341
2006-04-25 07:05:10 51°12.929 2°50.12 10.4547 3.54633 31.740915 29.422375
2006-04-25 07:06:10 51°12.821 2°49.805 10.4664 3.546119 31.732512 29.321247
2006-04-25 07:07:10 51°12.713 2°49.492 10.4853 3.549595 31.756546 29.489794
2006-04-25 07:08:10 51°12.606 2°49.179 10.4925 3.565395 31.896021 29.287537
2006-04-25 07:09:10 51°12.497 2°48.868 10.5053 3.564342 31.878518 29.388665
2006-04-25 07:10:10 51°12.389 2°48.558 10.5122 3.568344 31.910554 29.523503
2006-04-25 07:11:10 51°12.281 2°48.249 10.5149 3.57024 31.920947 30.399947
2006-04-25 07:12:10 51°12.182 2°47.933 10.52 3.570346 31.922697 30.635913
2006-04-25 07:13:10 51°12.092 2°47.61 10.5324 3.57951 32.007407 30.501076
2006-04-25 07:14:10 51°12.007 2°47.284 10.549 3.588253 32.085812 30.737042
2006-04-25 07:15:10 51°11.92 2°46.96 10.5523 3.592572 32.115997 30.770751
2006-04-25 07:16:10 51°11.848 2°46.625 10.5541 3.59826 32.16756 30.26511
2006-04-25 07:17:10 51°11.774 2°46.288 10.5588 3.605107 32.236316 29.456084
2006-04-25 07:18:10 51°11.702 2°45.95 10.5666 3.613008 32.30632 28.647059
2006-04-25 07:19:10 51°11.634 2°45.615 10.5916 3.621857 32.384314 27.905452
2006-04-25 07:20:10 51°11.568 2°45.28 10.6016 3.639449 32.544942 27.736905
2006-04-25 07:21:10 51°11.505 2°44.945 10.5982 3.649668 32.638681 27.399811
2006-04-25 07:22:10 51°11.442 2°44.607 10.6066 3.666102 32.801478 27.130136
2006-04-25 07:23:10 51°11.381 2°44.269 10.6133 3.665891 32.792167 26.961589
2006-04-25 07:24:10 51°11.317 2°43.931 10.6238 3.67 32.826557 26.927879
2006-04-25 07:25:10 51°11.253 2°43.595 10.6304 3.676532 32.882884 26.826751
2006-04-25 07:26:10 51°11.19 2°43.258 10.6436 3.684117 32.950408 26.691913
2006-04-25 07:27:10 51°11.14 2°42.917 10.6576 3.690965 33.006233 26.624494
2006-04-25 07:28:10 51°11.116 2°42.57 10.6717 3.697075 33.056152 26.624494
2006-04-25 07:29:10 51°11.116 2°42.29 10.6705 3.707084 33.144114 26.624494
2006-04-25 07:30:10 51°11.109 2°42.122 10.6736 3.709401 33.167907 26.489657
2006-04-25 07:31:10 51°11.109 2°42.068 10.6746 3.71193 33.192344 26.422238
2006-04-25 07:32:11 51°11.11 2°42.073 10.6766 3.717514 33.247926 26.489657
2006-04-25 07:33:10 51°11.11 2°42.079 10.6744 3.723203 33.303109 26.523366
2006-04-25 07:34:10 51°11.111 2°42.088 10.6778 3.724362 33.316112 26.489657
2006-04-25 07:35:10 51°11.112 2°42.097 10.6785 3.720253 33.274468 26.455947
2006-04-25 07:36:10 51°11.112 2°42.107 10.6809 3.718883 33.259371 26.455947
2006-04-25 07:37:10 51°11.112 2°42.117 10.684 3.718251 33.250158 26.489657
2006-04-25 07:38:10 51°11.115 2°42.129 10.6887 3.717514 33.242088 26.523366
2006-04-25 07:39:10 51°11.117 2°42.141 10.6893 3.716987 33.233197 26.523366
2006-04-25 07:40:10 51°11.12 2°42.153 10.6954 3.716776 33.228183 26.489657
2006-04-25 07:41:10 51°11.123 2°42.167 10.6956 3.716881 33.227044 26.523366
2006-04-25 07:42:11 51°11.125 2°42.183 10.6907 3.71646 33.225038 26.624494
2006-04-25 07:43:10 51°11.128 2°42.2 10.6926 3.716671 33.224947 26.658204
2006-04-25 07:44:10 51°11.131 2°42.218 10.6919 3.716565 33.228274 26.725623
2006-04-25 07:45:10 51°11.134 2°42.237 10.6905 3.716039 33.22376 26.793042
2006-04-25 07:46:11 51°11.138 2°42.258 10.6924 3.715407 33.215283 26.793042
2006-04-25 07:47:10 51°11.141 2°42.278 10.6937 3.712035 33.183193 26.86046
2006-04-25 07:48:10 51°11.156 2°42.293 10.694 3.714142 33.204889 26.89417
2006-04-25 07:49:11 51°11.185 2°42.265 10.6957 3.715406 33.213096 27.029007
2006-04-25 07:50:10 51°11.183 2°42.211 10.6871 3.713932 33.202063 27.062717
2006-04-25 07:51:11 51°11.141 2°42.182 10.6953 3.714142 33.203431 27.130136
2006-04-25 07:52:10 51°11.099 2°42.13 10.6851 3.716249 33.222941 27.130136
2006-04-25 07:53:10 51°11.09 2°42.066 10.6868 3.722571 33.292429 27.096426
2006-04-25 07:54:10 51°11.095 2°42.075 10.6882 3.721623 33.279337 27.163845
2006-04-25 07:55:11 51°11.101 2°42.098 10.6913 3.724046 33.304921 27.231264
2006-04-25 07:56:10 51°11.107 2°42.123 10.6904 3.725416 33.322215 27.231264
2006-04-25 07:57:11 51°11.113 2°42.151 10.6943 3.728682 33.354006 27.264973
2006-04-25 07:58:10 51°11.118 2°42.179 10.7004 3.730789 33.362541 27.264973
2006-04-25 07:59:10 51°11.123 2°42.21 10.6962 3.730683 33.361492 27.231264
2006-04-25 08:00:11 51°11.128 2°42.241 10.6909 3.728998 33.349833 27.231264
2006-04-25 08:01:10 51°11.134 2°42.273 10.6903 3.727839 33.339758 27.298683
2006-04-25 08:02:10 51°11.14 2°42.307 10.6936 3.727944 33.340807 27.264973
2006-04-25 08:03:11 51°11.148 2°42.342 10.6911 3.726048 33.321194 27.298683
2006-04-25 08:04:11 51°11.156 2°42.375 10.6906 3.72531 33.316777 27.264973
2006-04-25 08:05:10 51°11.166 2°42.409 10.6928 3.724467 33.305462 27.298683
2006-04-25 08:06:10 51°11.175 2°42.444 10.6967 3.722887 33.290461 27.332392
2006-04-25 08:07:10 51°11.186 2°42.48 10.6973 3.721728 33.277464 27.366101
2006-04-25 08:08:10 51°11.198 2°42.515 10.6986 3.721728 33.272353 27.366101
2006-04-25 08:09:10 51°11.213 2°42.548 10.6983 3.721939 33.27664 27.366101
2006-04-25 08:10:10 51°11.235 2°42.565 10.7108 3.722992 33.280554 27.43352
2006-04-25 08:11:10 51°11.256 2°42.57 10.6955 3.724783 33.300569 27.568358
2006-04-25 08:12:10 51°11.273 2°42.568 10.6866 3.723414 33.297166 27.635777
2006-04-25 08:13:11 51°11.28 2°42.564 10.6825 3.721939 33.28979 27.669486
2006-04-25 08:14:11 51°11.282 2°42.578 10.6844 3.721307 33.282035 27.635777
2006-04-25 08:15:10 51°11.284 2°42.608 10.6795 3.723203 33.300185 27.703195
2006-04-25 08:16:10 51°11.28 2°42.642 10.6761 3.7251 33.323456 27.669486
2006-04-25 08:17:10 51°11.279 2°42.684 10.6751 3.72805 33.352104 27.736905
2006-04-25 08:18:10 51°11.277 2°42.732 10.6775 3.726891 33.344954 27.736905
2006-04-25 08:19:10 51°11.218 2°42.727 10.6731 3.727207 33.341513 27.736905
2006-04-25 08:20:10 51°11.168 2°42.557 10.6886 3.725626 33.328703 27.770614
2006-04-25 08:21:10 51°11.088 2°42.292 10.6994 3.725205 33.312072 27.736905
2006-04-25 08:22:10 51°11.006 2°42.014 10.6977 3.731105 33.364956 27.770614
2006-04-25 08:23:10 51°10.921 2°41.743 10.7025 3.740587 33.45644 27.703195
2006-04-25 08:24:10 51°10.835 2°41.469 10.7061 3.750175 33.548998 27.703195
2006-04-25 08:25:11 51°10.751 2°41.19 10.697 3.759236 33.640759 27.568358
2006-04-25 08:26:10 51°10.675 2°40.916 10.691 3.766717 33.723467 27.500939
2006-04-25 08:27:11 51°10.596 2°40.637 10.6914 3.780098 33.857686 27.43352
2006-04-25 08:28:11 51°10.522 2°40.362 10.6813 3.791478 33.976479 27.298683
2006-04-25 08:29:11 51°10.445 2°40.087 10.6776 3.797484 34.045423 27.231264
2006-04-25 08:30:11 51°10.378 2°39.809 10.649 3.806545 34.142713 27.163845
2006-04-25 08:31:11 51°10.317 2°39.527 10.6468 3.812236 34.220646 26.995298
2006-04-25 08:32:10 51°10.257 2°39.249 10.6218 3.817083 34.272156 26.927879
2006-04-25 08:33:11 51°10.184 2°38.969 10.5791 3.824038 34.370482 26.86046
2006-04-25 08:34:11 51°10.124 2°38.685 10.5386 3.829728 34.46315 26.691913
2006-04-25 08:35:10 51°10.067 2°38.408 10.501 3.832468 34.530207 26.489657
2006-04-25 08:36:11 51°10.017 2°38.114 10.4621 3.834998 34.592251 26.388529
2006-04-25 08:37:11 51°9.967 2°37.827 10.4237 3.83563 34.637639 26.219982
2006-04-25 08:38:11 51°9.919 2°37.542 10.3866 3.836368 34.681893 26.118853
2006-04-25 08:39:11 51°9.882 2°37.254 10.3711 3.836263 34.709274 26.085144
2006-04-25 08:40:10 51°9.859 2°36.969 10.3551 3.836158 34.71052 25.882888
2006-04-25 08:41:11 51°9.842 2°36.673 10.2928 3.836053 34.751833 25.74805
2006-04-25 08:42:10 51°9.837 2°36.384 10.2682 3.834789 34.77844 25.613212
2006-04-25 08:43:10 51°9.895 2°36.108 10.278 3.834579 34.79255 25.512084
2006-04-25 08:44:10 51°10.049 2°35.906 10.1966 3.833736 34.78557 25.410956
2006-04-25 08:45:10 51°10.258 2°35.861 10.1197 3.828995 34.840681 25.545794
2006-04-25 08:46:11 51°10.465 2°36.032 10.0971 3.826467 34.865601 25.646922
2006-04-25 08:47:10 51°10.667 2°36.209 10.1466 3.825624 34.860933 25.579503
2006-04-25 08:48:11 51°10.88 2°36.376 10.1601 3.828153 34.845347 25.410956
2006-04-25 08:49:10 51°11.079 2°36.562 10.1349 3.829312 34.850109 25.242409
2006-04-25 08:50:11 51°11.29 2°36.74 10.1135 3.827942 34.866561 25.242409
2006-04-25 08:51:10 51°11.487 2°36.928 10.1275 3.826994 34.87875 25.242409
2006-04-25 08:52:11 51°11.695 2°37.109 10.1973 3.827415 34.849532 25.343537
2006-04-25 08:53:11 51°11.896 2°37.295 10.2601 3.826044 34.766532 25.343537
2006-04-25 08:54:11 51°12.096 2°37.484 10.3142 3.816139 34.613766 25.478375
2006-04-25 08:55:11 51°12.292 2°37.678 10.3429 3.809079 34.49866 25.815469
2006-04-25 08:56:11 51°12.491 2°37.868 10.3441 3.797909 34.366854 26.118853
2006-04-25 08:57:10 51°12.69 2°38.048 10.3442 3.78674 34.247408 26.32111
2006-04-25 08:58:10 51°12.892 2°38.233 10.3442 3.77789 34.158231 26.523366
2006-04-25 08:59:10 51°13.093 2°38.426 10.3675 3.773675 34.115778 26.557076
2006-04-25 09:00:11 51°13.291 2°38.63 10.3458 3.785054 34.203098 26.557076
2006-04-25 09:01:10 51°13.484 2°38.82 10.2098 3.774519 34.174318 26.961589
2006-04-25 09:02:11 51°13.685 2°38.998 10.1173 3.751761 34.024263 26.624494
2006-04-25 09:03:10 51°13.885 2°39.155 9.9377 3.739435 33.995986 26.523366
2006-04-25 09:04:11 51°14.098 2°39.193 9.9212 3.723001 33.996842 26.557076
2006-04-25 09:05:10 51°14.287 2°39.082 9.9886 3.726267 34.006365 26.759332
2006-04-25 09:06:10 51°14.451 2°38.895 10.076 3.738804 34.07872 27.062717
2006-04-25 09:07:10 51°14.609 2°38.693 10.1492 3.750393 34.111532 27.062717
2006-04-25 09:08:10 51°14.768 2°38.489 10.1362 3.756819 34.124783 27.029007
2006-04-25 09:09:11 51°14.935 2°38.288 10.0428 3.766302 34.255925 27.43352
2006-04-25 09:10:10 51°15.093 2°38.093 9.9913 3.773152 34.408387 27.635777
2006-04-25 09:11:11 51°15.254 2°37.898 9.9386 3.772942 34.448703 27.635777
2006-04-25 09:12:10 51°15.415 2°37.724 9.9205 3.771046 34.477376 27.534648
2006-04-25 09:13:10 51°15.591 2°37.572 9.9211 3.767569 34.44428 26.86046
2006-04-25 09:14:10 51°15.77 2°37.422 9.8526 3.759351 34.386082 26.354819
2006-04-25 09:15:10 51°15.951 2°37.269 9.8441 3.745971 34.302229 26.152563
2006-04-25 09:16:11 51°16.142 2°37.118 9.8073 3.737964 34.235218 26.118853
2006-04-25 09:17:10 51°16.33 2°36.972 9.8123 3.72943 34.165887 26.152563
2006-04-25 09:18:11 51°16.501 2°36.857 9.7962 3.727639 34.153775 26.152563
2006-04-25 09:19:10 51°16.592 2°36.828 9.7468 3.720053 34.107157 26.152563
2006-04-25 09:20:11 51°16.625 2°36.849 9.7433 3.714786 34.076461 26.118853
2006-04-25 09:21:10 51°16.659 2°36.846 9.7429 3.712363 34.054788 26.118853
2006-04-25 09:22:10 51°16.669 2°36.836 9.7429 3.712784 34.060632 26.085144
2006-04-25 09:23:10 51°16.676 2°36.863 9.7579 3.712257 34.05756 26.051435
2006-04-25 09:24:10 51°16.691 2°36.917 9.7415 3.709834 34.025117 26.118853
2006-04-25 09:25:11 51°16.711 2°36.974 9.7364 3.708675 34.018662 26.152563
2006-04-25 09:26:11 51°16.732 2°37.029 9.7339 3.711098 34.051877 26.152563
2006-04-25 09:27:11 51°16.753 2°37.085 9.732 3.707516 34.015282 26.186272
2006-04-25 09:28:11 51°16.776 2°37.14 9.7372 3.707727 34.016666 26.186272
2006-04-25 09:29:11 51°16.797 2°37.195 9.7361 3.709202 34.033272 26.186272
2006-04-25 09:30:11 51°16.819 2°37.249 9.739 3.711941 34.05587 26.152563
2006-04-25 09:31:11 51°16.84 2°37.304 9.733 3.712573 34.065408 26.186272
2006-04-25 09:32:10 51°16.845 2°37.364 9.7381 3.711836 34.063263 26.186272
2006-04-25 09:33:10 51°16.813 2°37.345 9.712 3.712152 34.055714 26.118853
2006-04-25 09:34:11 51°16.89 2°37.13 9.7321 3.71015 34.052967 26.118853
2006-04-25 09:35:11 51°16.99 2°36.859 9.7435 3.710993 34.05311 26.051435
2006-04-25 09:36:11 51°17.12 2°36.602 9.7361 3.713627 34.078484 26.118853
2006-04-25 09:37:10 51°17.242 2°36.345 9.7551 3.718895 34.130004 26.051435
2006-04-25 09:38:11 51°17.352 2°36.074 9.7379 3.731538 34.25538 26.017725
2006-04-25 09:39:11 51°17.463 2°35.813 9.7234 3.754085 34.490705 25.950306
2006-04-25 09:40:11 51°17.572 2°35.558 9.7086 3.759037 34.567973 25.882888
2006-04-25 09:41:10 51°17.682 2°35.314 9.7043 3.754928 34.532125 25.680631
2006-04-25 09:42:10 51°17.794 2°35.068 9.6993 3.752716 34.510237 25.613212
2006-04-25 09:43:11 51°17.913 2°34.813 9.7019 3.752189 34.506401 25.680631
2006-04-25 09:44:10 51°18.034 2°34.57 9.6907 3.753137 34.525495 25.984016
2006-04-25 09:45:11 51°18.159 2°34.318 9.7002 3.755034 34.555104 25.984016
2006-04-25 09:46:10 51°18.279 2°34.076 9.6562 3.755771 34.549364 25.613212
2006-04-25 09:47:11 51°18.389 2°33.815 9.5741 3.751558 34.571925 25.916597
2006-04-25 09:48:11 51°18.495 2°33.558 9.5575 3.745447 34.553093 25.646922
2006-04-25 09:49:10 51°18.596 2°33.299 9.5575 3.742392 34.545238 25.545794
2006-04-25 09:50:11 51°18.704 2°33.031 9.5664 3.739969 34.519535 25.579503
2006-04-25 09:51:10 51°18.808 2°32.771 9.5847 3.738599 34.490554 25.478375
2006-04-25 09:52:11 51°18.916 2°32.504 9.5825 3.736702 34.461667 25.410956
2006-04-25 09:53:11 51°19.023 2°32.24 9.5888 3.73449 34.442068 25.410956
2006-04-25 09:54:11 51°19.132 2°31.974 9.5648 3.732593 34.421803 25.343537
2006-04-25 09:55:10 51°19.242 2°31.707 9.5515 3.73291 34.462634 25.410956
2006-04-25 09:56:11 51°19.35 2°31.429 9.3434 3.733226 34.452562 25.276118
2006-04-25 09:57:11 51°19.455 2°31.161 9.1957 3.738076 34.762552 25.815469
2006-04-25 09:58:11 51°19.556 2°30.888 9.1906 3.734178 34.815582 25.276118
2006-04-25 09:59:11 51°19.661 2°30.621 9.1682 3.73323 34.806533 24.837896
2006-04-25 10:00:11 51°19.784 2°30.377 9.1145 3.732809 34.830193 24.63564
2006-04-25 10:01:11 51°19.902 2°30.185 9.1025 3.731229 34.854687 24.467093
2006-04-25 10:02:10 51°19.964 2°30.094 9.0984 3.729754 34.848172 24.399674
2006-04-25 10:03:11 51°19.997 2°30.091 9.1041 3.729544 34.842766 24.433383
2006-04-25 10:04:10 51°20.019 2°30.123 9.1015 3.729017 34.840496 24.534512
2006-04-25 10:05:11 51°20.04 2°30.176 9.1038 3.729965 34.840726 24.534512
2006-04-25 10:06:11 51°20.061 2°30.245 9.1048 3.729438 34.843276 24.568221
2006-04-25 10:07:11 51°20.079 2°30.313 9.1133 3.728595 34.834503 24.467093
2006-04-25 10:08:11 51°20.097 2°30.383 9.1313 3.730386 34.837885 24.399674
2006-04-25 10:09:11 51°20.112 2°30.455 9.1317 3.731124 34.836728 24.399674
2006-04-25 10:10:11 51°20.164 2°30.512 9.1294 3.730808 34.836651 24.433383
2006-04-25 10:11:11 51°20.277 2°30.697 9.1317 3.730597 34.829644 24.467093
2006-04-25 10:12:11 51°20.448 2°30.949 9.1504 3.729016 34.814008 24.399674
2006-04-25 10:13:11 51°20.626 2°31.209 9.1756 3.729332 34.787646 24.298546
2006-04-25 10:14:11 51°20.808 2°31.47 9.184 3.729543 34.769831 24.332255
2006-04-25 10:15:11 51°20.991 2°31.727 9.2062 3.729226 34.75376 24.433383
2006-04-25 10:16:11 51°21.171 2°31.981 9.2344 3.728383 34.731435 24.500802
2006-04-25 10:17:11 51°21.348 2°32.232 9.2523 3.728067 34.700247 24.534512
2006-04-25 10:18:11 51°21.503 2°32.517 9.2835 3.728067 34.675568 24.534512
2006-04-25 10:19:11 51°21.604 2°32.85 9.2937 3.728593 34.646057 24.568221
2006-04-25 10:20:11 51°21.682 2°33.202 9.3123 3.725432 34.621276 24.736768
2006-04-25 10:21:11 51°21.78 2°33.547 9.3184 3.725643 34.602837 24.804187
2006-04-25 10:22:11 51°21.844 2°33.905 9.342 3.724905 34.579366 24.804187
2006-04-25 10:23:11 51°21.897 2°34.274 9.3373 3.724167 34.563827 24.837896
2006-04-25 10:24:11 51°21.954 2°34.641 9.3445 3.723957 34.556113 24.939024
2006-04-25 10:25:11 51°22.018 2°35.016 9.3363 3.722903 34.543642 25.006443
2006-04-25 10:26:11 51°22.082 2°35.387 9.3274 3.719532 34.519859 25.141281
2006-04-25 10:27:11 51°22.117 2°35.777 9.3265 3.719005 34.508094 25.107571
2006-04-25 10:28:11 51°22.136 2°36.166 9.3166 3.716582 34.509115 25.073862
2006-04-25 10:29:11 51°22.161 2°36.556 9.3172 3.716582 34.498843 24.939024
2006-04-25 10:30:10 51°22.18 2°36.945 9.2886 3.716055 34.502086 24.837896
2006-04-25 10:31:11 51°22.187 2°37.343 9.238 3.715002 34.530737 24.804187
2006-04-25 10:32:10 51°22.217 2°37.728 9.2076 3.713949 34.555492 24.770477
2006-04-25 10:33:11 51°22.26 2°38.124 9.2329 3.712264 34.558654 24.804187
2006-04-25 10:34:11 51°22.295 2°38.511 9.2443 3.710894 34.515908 24.837896
2006-04-25 10:35:11 51°22.331 2°38.9 9.2544 3.709524 34.500928 25.006443
2006-04-25 10:36:11 51°22.38 2°39.288 9.2895 3.710156 34.482152 24.837896
2006-04-25 10:37:11 51°22.461 2°39.674 9.2821 3.711314 34.478334 24.770477
2006-04-25 10:38:11 51°22.552 2°40.048 9.2686 3.710472 34.475145 24.736768
2006-04-25 10:39:11 51°22.661 2°40.41 9.2807 3.710366 34.480379 24.736768
2006-04-25 10:40:11 51°22.767 2°40.764 9.2347 3.710156 34.492435 24.703059
2006-04-25 10:41:11 51°22.873 2°41.118 9.2249 3.708365 34.503179 24.703059
2006-04-25 10:42:11 51°23.023 2°41.43 9.2163 3.706153 34.488966 24.63564
2006-04-25 10:43:11 51°23.199 2°41.708 9.2108 3.702571 34.455011 24.568221
2006-04-25 10:44:11 51°23.376 2°41.988 9.1792 3.699832 34.446408 24.63564
2006-04-25 10:45:11 51°23.539 2°42.279 9.1842 3.694143 34.401664 24.63564
2006-04-25 10:46:11 51°23.694 2°42.598 9.1793 3.689402 34.353297 24.669349
2006-04-25 10:47:11 51°23.841 2°42.912 9.1805 3.684345 34.296931 24.703059
2006-04-25 10:48:11 51°23.991 2°43.22 9.1806 3.681711 34.269636 24.804187
2006-04-25 10:49:11 51°24.139 2°43.541 9.188 3.678445 34.242879 24.804187
2006-04-25 10:50:11 51°24.288 2°43.853 9.1908 3.674231 34.186632 24.871606
2006-04-25 10:51:11 51°24.432 2°44.168 9.1691 3.672861 34.182661 24.972734
2006-04-25 10:52:11 51°24.578 2°44.488 9.1976 3.673599 34.205246 25.006443
2006-04-25 10:53:11 51°24.695 2°44.838 9.1649 3.672124 34.177379 25.006443
2006-04-25 10:54:11 51°24.811 2°45.189 9.1614 3.670333 34.17061 25.073862
2006-04-25 10:55:11 51°24.925 2°45.536 9.1173 3.665276 34.125275 25.107571
2006-04-25 10:56:11 51°25.036 2°45.889 9.0198 3.664856 34.190933 25.343537
2006-04-25 10:57:11 51°25.155 2°46.226 9.0017 3.654848 34.15082 25.343537
2006-04-25 10:58:11 51°25.276 2°46.555 8.9952 3.648949 34.099718 25.410956
2006-04-25 10:59:11 51°25.39 2°46.888 8.9967 3.649476 34.110716 25.410956
2006-04-25 11:00:11 51°25.51 2°47.22 8.9949 3.647369 34.089588 25.444665
2006-04-25 11:01:11 51°25.627 2°47.554 8.9814 3.644841 34.071168 25.478375
2006-04-25 11:02:11 51°25.75 2°47.893 8.9844 3.647264 34.097164 25.444665
2006-04-25 11:03:11 51°25.865 2°48.21 9.0032 3.64326 34.045281 25.444665
2006-04-25 11:04:11 51°25.947 2°48.417 9.0251 3.637677 33.977014 25.377247
2006-04-25 11:05:11 51°25.998 2°48.536 9.0562 3.634305 33.918464 25.377247
2006-04-25 11:06:11 51°26.004 2°48.582 9.0614 3.633041 33.884993 25.377247
2006-04-25 11:07:11 51°26.023 2°48.635 9.0692 3.631987 33.869371 25.444665
2006-04-25 11:08:11 51°26.049 2°48.696 9.0882 3.631566 33.858749 25.478375
2006-04-25 11:09:11 51°26.08 2°48.756 9.1046 3.63283 33.846879 25.478375
2006-04-25 11:10:11 51°26.112 2°48.81 9.1052 3.633883 33.849218 25.545794
2006-04-25 11:11:11 51°26.142 2°48.864 9.1264 3.634515 33.847189 25.579503
2006-04-25 11:12:11 51°26.174 2°48.919 9.1156 3.634726 33.843915 25.579503
2006-04-25 11:13:11 51°26.204 2°48.973 9.131 3.63441 33.835186 25.579503
2006-04-25 11:14:11 51°26.235 2°49.03 9.1193 3.633672 33.826768 25.579503
2006-04-25 11:15:11 51°26.294 2°49.06 9.1177 3.632514 33.822555 25.613212
2006-04-25 11:16:11 51°26.424 2°49.166 9.0549 3.63304 33.831908 25.714341
2006-04-25 11:17:11 51°26.524 2°49.489 9.0094 3.634095 33.913144 25.849178
2006-04-25 11:18:11 51°26.611 2°49.858 9.0179 3.632199 33.927926 25.849178
2006-04-25 11:19:11 51°26.686 2°50.243 9.1149 3.626194 33.829556 25.714341
2006-04-25 11:20:11 51°26.751 2°50.633 9.1328 3.617765 33.657413 25.680631
2006-04-25 11:21:11 51°26.814 2°51.022 9.1562 3.61334 33.598479 25.714341
2006-04-25 11:22:11 51°26.883 2°51.405 9.1216 3.612814 33.587621 25.815469
2006-04-25 11:23:11 51°26.96 2°51.781 9.1598 3.611866 33.594048 25.882888
2006-04-25 11:24:11 51°27.03 2°52.161 9.1005 3.611128 33.577144 25.950306
2006-04-25 11:25:11 51°27.097 2°52.541 9.0711 3.612393 33.639769 26.219982
2006-04-25 11:26:11 51°27.152 2°52.926 9.0515 3.611656 33.645315 26.32111
2006-04-25 11:27:11 51°27.201 2°53.31 8.9825 3.610497 33.656593 26.253691
2006-04-25 11:28:11 51°27.252 2°53.695 9.026 3.605652 33.657623 26.253691
2006-04-25 11:29:11 51°27.297 2°54.08 9.0188 3.604072 33.61014 26.152563
2006-04-25 11:30:11 51°27.34 2°54.471 9.0212 3.603018 33.609304 26.186272
2006-04-25 11:31:11 51°27.378 2°54.859 9.0224 3.602808 33.603236 26.118853
2006-04-25 11:32:11 51°27.43 2°55.246 9.0381 3.602281 33.590014 26.017725
2006-04-25 11:33:11 51°27.484 2°55.629 9.0599 3.603334 33.591631 25.950306
2006-04-25 11:34:11 51°27.537 2°56.011 9.0631 3.603229 33.572714 25.984016
2006-04-25 11:35:11 51°27.586 2°56.399 9.0485 3.596803 33.505359 25.916597
2006-04-25 11:36:11 51°27.628 2°56.789 9.0317 3.594802 33.509364 25.950306
2006-04-25 11:37:11 51°27.673 2°57.175 9.0347 3.592379 33.487341 25.882888
2006-04-25 11:38:11 51°27.72 2°57.564 9.0335 3.591009 33.463873 25.916597
2006-04-25 11:39:11 51°27.763 2°57.95 9.0286 3.588797 33.445582 25.984016
2006-04-25 11:40:11 51°27.81 2°58.333 9.0264 3.587744 33.443931 25.984016
2006-04-25 11:41:11 51°27.85 2°58.716 9.0131 3.587217 33.436155 26.017725
2006-04-25 11:42:11 51°27.891 2°59.088 8.9991 3.586164 33.446864 26.051435
2006-04-25 11:43:11 51°27.926 2°59.456 8.9874 3.583847 33.42901 26.085144
2006-04-25 11:44:11 51°27.957 2°59.827 8.9897 3.58037 33.402222 26.085144
2006-04-25 11:45:11 51°27.986 3°0.203 8.9727 3.576368 33.358388 26.152563
2006-04-25 11:46:11 51°28.019 3°0.571 8.9608 3.571101 33.313014 26.152563
2006-04-25 11:47:11 51°28.053 3°0.942 8.955 3.563938 33.261812 26.32111
2006-04-25 11:48:11 51°28.056 3°1.313 8.8765 3.555722 33.217325 26.590785
2006-04-25 11:49:11 51°28.05 3°1.688 8.8787 3.550456 33.186479 26.624494
2006-04-25 11:50:11 51°28.07 3°2.067 8.9053 3.545821 33.137563 26.759332
2006-04-25 11:51:11 51°28.101 3°2.448 8.9196 3.5454 33.112455 26.725623
2006-04-25 11:52:11 51°28.132 3°2.828 8.9506 3.544346 33.086954 26.826751
2006-04-25 11:53:11 51°28.179 3°3.14 8.9845 3.545294 33.059272 26.793042
2006-04-25 11:54:11 51°28.241 3°3.326 8.9968 3.54582 33.041801 26.624494
2006-04-25 11:55:11 51°28.287 3°3.429 9.0108 3.545715 33.031548 26.759332
2006-04-25 11:56:11 51°28.311 3°3.477 9.0225 3.546241 33.025554 26.793042
2006-04-25 11:57:11 51°28.34 3°3.528 9.0302 3.54582 33.01738 26.927879
2006-04-25 11:58:11 51°28.372 3°3.569 9.0403 3.546241 33.012591 26.961589
2006-04-25 11:59:11 51°28.4 3°3.606 9.0595 3.546978 33.008026 26.927879
2006-04-25 12:00:11 51°28.426 3°3.642 9.0601 3.549295 33.014471 26.793042
2006-04-25 12:01:11 51°28.452 3°3.683 9.0569 3.547715 32.998898 26.793042
2006-04-25 12:02:11 51°28.477 3°3.723 9.0585 3.543818 32.966976 26.89417
2006-04-25 12:03:11 51°28.502 3°3.765 9.0598 3.543186 32.958921 26.89417
2006-04-25 12:04:11 51°28.526 3°3.808 9.0532 3.542449 32.946739 26.89417
2006-04-25 12:05:11 51°28.552 3°3.851 9.0543 3.542343 32.94869 26.86046
2006-04-25 12:06:11 51°28.616 3°3.923 9.0589 3.542659 32.951956 26.86046
2006-04-25 12:07:11 51°28.612 3°4.068 9.0645 3.542659 32.934482 27.231264
2006-04-25 12:08:11 51°28.506 3°4.304 9.1048 3.539394 32.903783 27.163845
2006-04-25 12:09:11 51°28.377 3°4.569 9.1667 3.539814 32.841505 27.130136
2006-04-25 12:10:11 51°28.24 3°4.824 9.1647 3.533073 32.748658 27.264973
2006-04-25 12:11:11 51°28.093 3°5.057 9.1896 3.526542 32.681407 27.46723
2006-04-25 12:12:11 51°27.946 3°5.29 9.2014 3.522539 32.622203 27.366101
2006-04-25 12:13:11 51°27.798 3°5.52 9.1978 3.519063 32.55653 27.602067
2006-04-25 12:14:11 51°27.652 3°5.751 9.1616 3.51148 32.50844 27.905452
2006-04-25 12:15:11 51°27.508 3°5.985 9.1335 3.503896 32.455813 28.276255
2006-04-25 12:16:11 51°27.36 3°6.214 9.1185 3.496524 32.403062 28.613349
2006-04-25 12:17:11 51°27.222 3°6.464 9.1281 3.488414 32.328529 28.748187
2006-04-25 12:18:11 51°27.094 3°6.726 9.1401 3.487044 32.302544 29.017862
2006-04-25 12:19:11 51°26.967 3°6.993 9.1467 3.488203 32.310003 29.287537
2006-04-25 12:20:11 51°26.845 3°7.263 9.1568 3.489151 32.317524 29.725759
2006-04-25 12:21:11 51°26.728 3°7.543 9.1633 3.491047 32.325874 30.163982
2006-04-25 12:22:11 51°26.613 3°7.827 9.1659 3.490941 32.31959 30.163982
2006-04-25 12:23:11 51°26.523 3°8.066 9.1895 3.489045 32.292676 29.995435
2006-04-25 12:24:11 51°26.48 3°8.188 9.2091 3.490309 32.273778 30.298819
2006-04-25 12:25:11 51°26.478 3°8.282 9.2725 3.490414 32.260789 30.062853
2006-04-25 12:26:11 51°26.494 3°8.31 9.2878 3.485463 32.15908 30.635913
2006-04-25 12:27:11 51°26.515 3°8.343 9.2824 3.487569 32.175504 30.399947
2006-04-25 12:28:11 51°26.542 3°8.386 9.29 3.486727 32.172029 30.197691
2006-04-25 12:29:11 51°26.573 3°8.432 9.2934 3.488939 32.184373 29.860597
2006-04-25 12:30:11 51°26.604 3°8.469 9.2867 3.489149 32.190953 29.69205
2006-04-25 12:31:11 51°26.632 3°8.499 9.3058 3.488307 32.183058 29.69205
2006-04-25 12:32:11 51°26.679 3°8.539 9.3336 3.488728 32.171904 29.388665
2006-04-25 12:33:11 51°26.698 3°8.667 9.376 3.487674 32.124361 29.995435
2006-04-25 12:34:11 51°26.644 3°8.85 9.4004 3.482513 32.040826 30.298819
2006-04-25 12:35:11 51°26.538 3°9.131 9.4708 3.480827 31.990016 30.163982
2006-04-25 12:36:11 51°26.424 3°9.413 9.4831 3.478509 31.924879 29.860597
2006-04-25 12:37:11 51°26.3 3°9.683 9.4977 3.479141 31.895732 29.523503
2006-04-25 12:38:11 51°26.178 3°9.954 9.5617 3.477456 31.885107 29.456084
2006-04-25 12:39:11 51°26.054 3°10.224 9.5228 3.476718 31.852967 29.388665
2006-04-25 12:40:11 51°25.93 3°10.493 9.5272 3.476297 31.842893 29.456084
2006-04-25 12:41:11 51°25.806 3°10.76 9.5445 3.473348 31.812182 29.523503
2006-04-25 12:42:11 51°25.683 3°11.026 9.5361 3.47577 31.830305 29.624631
2006-04-25 12:43:11 51°25.571 3°11.31 9.526 3.477666 31.848856 29.69205
2006-04-25 12:44:11 51°25.472 3°11.612 9.5234 3.477561 31.859365 29.725759
2006-04-25 12:45:11 51°25.422 3°11.949 9.5206 3.478614 31.875149 29.557212
2006-04-25 12:46:11 51°25.391 3°12.297 9.5381 3.479878 31.874242 29.557212
2006-04-25 12:47:11 51°25.392 3°12.656 9.6593 3.479983 31.86156 29.354956
2006-04-25 12:48:11 51°25.425 3°13.018 9.721 3.474084 31.703723 29.287537
2006-04-25 12:49:11 51°25.453 3°13.371 9.6005 3.477559 31.732473 30.163982
2006-04-25 12:50:11 51°25.477 3°13.726 9.6271 3.479772 31.805977 30.433657
2006-04-25 12:51:11 51°25.498 3°14.074 9.6463 3.478718 31.784483 29.995435
2006-04-25 12:52:11 51°25.528 3°14.424 9.6831 3.480614 31.781393 29.590922
2006-04-25 12:53:11 51°25.565 3°14.773 9.6129 3.488302 31.842047 29.186409
2006-04-25 12:54:11 51°25.605 3°15.12 9.6522 3.480193 31.809531 29.995435
2006-04-25 12:55:11 51°25.648 3°15.465 9.6559 3.47777 31.743226 29.523503
2006-04-25 12:56:11 51°25.668 3°15.816 9.6638 3.477349 31.743986 30.197691
2006-04-25 12:57:11 51°25.691 3°16.168 9.6589 3.47461 31.706188 29.995435
2006-04-25 12:58:11 51°25.734 3°16.52 9.6659 3.470292 31.677502 29.961725
2006-04-25 12:59:11 51°25.767 3°16.874 9.655 3.47461 31.717671 29.961725
2006-04-25 13:00:11 51°25.802 3°17.227 9.6722 3.476717 31.723221 29.826888
2006-04-25 13:01:11 51°25.831 3°17.552 9.6242 3.472925 31.695573 29.253828
2006-04-25 13:02:11 51°25.915 3°17.666 9.6291 3.467554 31.675572 29.422375
2006-04-25 13:03:11 51°25.977 3°17.61 9.617 3.465237 31.6571 29.69205
2006-04-25 13:04:12 51°25.99 3°17.635 9.6063 3.464816 31.651393 29.860597
2006-04-25 13:05:11 51°25.999 3°17.655 9.6085 3.463131 31.643629 30.130272
2006-04-25 13:06:11 51°26.008 3°17.67 9.6111 3.462815 31.638273 29.961725
2006-04-25 13:07:10 51°26.018 3°17.681 9.6051 3.463236 31.644697 29.894306
2006-04-25 13:08:11 51°26.034 3°17.693 9.6118 3.462815 31.641142 29.894306
2006-04-25 13:09:11 51°26.09 3°17.629 9.6173 3.463552 31.64575 29.725759
2006-04-25 13:10:11 51°26.036 3°17.501 9.626 3.460287 31.608342 29.961725
2006-04-25 13:11:11 51°25.906 3°17.42 9.6173 3.462393 31.618234 29.995435
2006-04-25 13:12:11 51°25.77 3°17.243 9.675 3.466712 31.664159 29.961725
2006-04-25 13:13:11 51°25.612 3°17.041 9.5732 3.472293 31.712857 29.388665
2006-04-25 13:14:11 51°25.447 3°16.85 9.6285 3.465659 31.695854 29.489794
2006-04-25 13:15:11 51°25.282 3°16.652 9.6546 3.469871 31.681122 29.793178
2006-04-25 13:16:11 51°25.114 3°16.466 9.7389 3.472293 31.694192 30.2314
2006-04-25 13:17:11 51°24.95 3°16.273 9.808 3.468395 31.563276 29.354956
2006-04-25 13:18:11 51°24.783 3°16.083 9.8798 3.461654 31.450501 29.658341
2006-04-25 13:19:11 51°24.619 3°15.882 9.8727 3.4507 31.306234 29.961725
2006-04-25 13:20:11 51°24.455 3°15.676 9.9179 3.449015 31.269574 29.826888
2006-04-25 13:21:11 51°24.289 3°15.475 9.9644 3.439536 31.127357 29.793178
2006-04-25 13:22:11 51°24.125 3°15.277 10.0157 3.428056 30.980143 30.298819
2006-04-25 13:23:11 51°23.962 3°15.075 10.0626 3.41626 30.810826 30.635913
2006-04-25 13:24:11 51°23.799 3°14.871 10.0677 3.408677 30.70614 30.669623
2006-04-25 13:25:11 51°23.635 3°14.667 10.0882 3.405412 30.661194 30.905589
2006-04-25 13:26:11 51°23.474 3°14.455 10.1257 3.401831 30.609036 31.41123
2006-04-25 13:27:11 51°23.312 3°14.251 10.194 3.397934 30.544253 31.714614
2006-04-25 13:28:11 51°23.152 3°14.042 10.1797 3.386876 30.378519 31.647195
2006-04-25 13:29:11 51°22.993 3°13.828 10.1666 3.382453 30.347372 31.546067
2006-04-25 13:30:11 51°22.838 3°13.604 10.1619 3.379399 30.337262 31.680905
2006-04-25 13:31:11 51°22.698 3°13.404 10.2108 3.375503 30.289715 31.782033
2006-04-25 13:32:11 51°22.625 3°13.277 10.2619 3.372027 30.208729 32.253965
2006-04-25 13:33:11 51°22.614 3°13.238 10.3089 3.36992 30.142247 32.321383
2006-04-25 13:34:12 51°22.616 3°13.247 10.3074 3.368235 30.104162 32.287674
2006-04-25 13:35:11 51°22.619 3°13.257 10.2918 3.36834 30.108544 32.388802
2006-04-25 13:36:11 51°22.622 3°13.268 10.2712 3.36834 30.123913 32.422512
2006-04-25 13:37:11 51°22.625 3°13.278 10.2826 3.368341 30.132606 32.422512
2006-04-25 13:38:11 51°22.628 3°13.29 10.2873 3.369394 30.135689 32.355093
2006-04-25 13:39:11 51°22.632 3°13.302 10.3212 3.369815 30.123151 32.220255
2006-04-25 13:40:11 51°22.635 3°13.314 10.324 3.370657 30.118805 32.085418
2006-04-25 13:41:11 51°22.637 3°13.326 10.359 3.371183 30.115341 32.051708
2006-04-25 13:42:11 51°22.639 3°13.338 10.369 3.372762 30.104295 31.916871
2006-04-25 13:43:11 51°22.641 3°13.35 10.372 3.373921 30.105091 31.849452
2006-04-25 13:44:11 51°22.647 3°13.358 10.3638 3.374237 30.109548 31.849452
2006-04-25 13:45:11 51°22.686 3°13.295 10.3545 3.3735 30.107588 31.883161
2006-04-25 13:46:11 51°22.67 3°13.086 10.3973 3.373394 30.118549 32.085418
2006-04-25 13:47:11 51°22.674 3°12.769 10.449 3.376553 30.098491 32.085418
2006-04-25 13:48:11 51°22.69 3°12.441 10.389 3.377184 30.064862 32.051708
2006-04-25 13:49:11 51°22.632 3°12.123 10.3657 3.373183 30.079161 32.119127
2006-04-25 13:50:11 51°22.569 3°11.798 10.3415 3.367813 30.052007 32.152836
2006-04-25 13:51:11 51°22.517 3°11.469 10.3193 3.363074 30.018435 32.220255
2006-04-25 13:52:11 51°22.503 3°11.124 10.3033 3.361284 30.020009 32.321383
2006-04-25 13:53:11 51°22.49 3°10.775 10.2838 3.361074 30.03257 32.253965
2006-04-25 13:54:11 51°22.475 3°10.423 10.3336 3.356862 30.004834 32.355093
2006-04-25 13:55:11 51°22.45 3°10.074 10.2906 3.36834 30.075858 32.388802
2006-04-25 13:56:11 51°22.43 3°9.726 10.3129 3.370657 30.141527 32.928153
2006-04-25 13:57:11 51°22.385 3°9.395 10.3335 3.37708 30.168391 33.06299
2006-04-25 13:58:11 51°22.309 3°9.075 10.3848 3.382556 30.203884 33.265247
2006-04-25 13:59:11 51°22.239 3°8.751 10.3916 3.384451 30.196571 33.265247
2006-04-25 14:00:11 51°22.161 3°8.43 10.3548 3.383504 30.187865 33.366375
2006-04-25 14:01:11 51°22.092 3°8.1 10.3219 3.374974 30.14019 33.534922
2006-04-25 14:02:11 51°22.033 3°7.765 10.3028 3.377396 30.184229 33.703469
2006-04-25 14:03:11 51°21.995 3°7.422 10.3261 3.377396 30.184229 33.939435
2006-04-25 14:04:11 51°21.977 3°7.077 10.3604 3.381188 30.215091 34.276529
2006-04-25 14:05:11 51°21.944 3°6.74 10.391 3.394772 30.303365 33.939435
2006-04-25 14:06:11 51°21.905 3°6.405 10.3582 3.403302 30.390494 33.905725
2006-04-25 14:07:11 51°21.828 3°6.087 10.3653 3.406672 30.440708 33.872016
2006-04-25 14:08:11 51°21.763 3°5.76 10.2156 3.413729 30.544457 34.107982
2006-04-25 14:09:11 51°21.686 3°5.442 10.2169 3.412572 30.623288 34.377657
2006-04-25 14:10:11 51°21.613 3°5.118 10.1962 3.414467 30.642155 34.074272
2006-04-25 14:11:11 51°21.541 3°4.796 10.2196 3.417732 30.680794 34.006853
2006-04-25 14:12:11 51°21.472 3°4.471 10.2569 3.424051 30.709549 33.939435
2006-04-25 14:13:11 51°21.404 3°4.144 10.2327 3.418679 30.655443 34.040563
2006-04-25 14:14:11 51°21.33 3°3.823 10.2966 3.440901 30.878613 33.703469
2006-04-25 14:15:11 51°21.254 3°3.503 10.2784 3.449958 30.922069 33.400084
2006-04-25 14:16:11 51°21.165 3°3.188 10.2956 3.448063 30.925178 33.366375
2006-04-25 14:17:11 51°21.087 3°2.867 10.3021 3.473128 31.136026 33.029281
2006-04-25 14:18:11 51°20.998 3°2.55 10.2886 3.473761 31.156826 33.164118
2006-04-25 14:19:11 51°20.919 3°2.224 10.2802 3.465651 31.091981 33.0967
2006-04-25 14:20:11 51°20.838 3°1.902 10.269 3.464387 31.091825 33.029281
2006-04-25 14:21:11 51°20.764 3°1.577 10.2501 3.466494 31.10935 33.029281
2006-04-25 14:22:11 51°20.689 3°1.251 10.2291 3.467021 31.137418 33.130409
2006-04-25 14:23:11 51°20.622 3°0.92 10.2494 3.470918 31.181114 33.06299
2006-04-25 14:24:11 51°20.546 3°0.594 10.2785 3.475236 31.210987 33.029281
2006-04-25 14:25:11 51°20.473 3°0.277 10.291 3.481134 31.255894 32.692187
2006-04-25 14:26:11 51°20.398 2°59.947 10.3052 3.487347 31.294198 32.456221
2006-04-25 14:27:11 51°20.323 2°59.619 10.2894 3.492192 31.332728 32.220255
2006-04-25 14:28:11 51°20.25 2°59.29 10.2941 3.493246 31.355046 31.95058
2006-04-25 14:29:11 51°20.186 2°58.958 10.2932 3.505148 31.474369 31.782033
2006-04-25 14:30:11 51°20.128 2°58.623 10.2775 3.506412 31.48767 31.41123
2006-04-25 14:31:11 51°20.07 2°58.284 10.253 3.514733 31.589585 30.703332
2006-04-25 14:32:11 51°20.001 2°57.948 10.2281 3.519999 31.659032 30.399947
2006-04-25 14:33:11 51°19.944 2°57.61 10.1747 3.522738 31.721646 30.26511
2006-04-25 14:34:11 51°19.879 2°57.277 10.1322 3.527374 31.806938 30.130272
2006-04-25 14:35:11 51°19.813 2°56.943 10.0404 3.531061 31.895764 30.501076
2006-04-25 14:36:11 51°19.753 2°56.606 9.9587 3.534011 31.991086 30.602204
2006-04-25 14:37:11 51°19.681 2°56.273 9.8772 3.534855 32.07711 30.433657
2006-04-25 14:38:11 51°19.603 2°55.946 9.8378 3.541597 32.206524 30.062853
2006-04-25 14:39:11 51°19.537 2°55.609 9.8253 3.543914 32.258962 29.759469
2006-04-25 14:40:11 51°19.471 2°55.273 9.8233 3.548655 32.316364 29.287537
2006-04-25 14:41:11 51°19.409 2°54.936 9.8548 3.560663 32.428403 28.916734
2006-04-25 14:42:11 51°19.344 2°54.601 9.9133 3.57088 32.509875 28.680768
2006-04-25 14:43:11 51°19.272 2°54.27 9.9936 3.588049 32.611766 28.040289
2006-04-25 14:44:11 51°19.211 2°53.932 9.9862 3.614068 32.826903 27.635777
2006-04-25 14:45:11 51°19.148 2°53.594 9.9798 3.631661 33.013535 27.366101
2006-04-25 14:46:11 51°19.07 2°53.267 9.9507 3.635137 33.064997 27.163845
2006-04-25 14:47:11 51°19 2°52.934 9.9518 3.641564 33.148613 26.995298
2006-04-25 14:48:11 51°18.922 2°52.604 9.9617 3.656734 33.294798 26.89417
2006-04-25 14:49:11 51°18.854 2°52.269 9.9664 3.660737 33.334607 26.995298
2006-04-25 14:50:11 51°18.792 2°51.934 9.9681 3.663476 33.351881 26.995298
2006-04-25 14:51:11 51°18.691 2°51.624 9.9002 3.664529 33.368542 26.927879
2006-04-25 14:52:11 51°18.582 2°51.32 9.8302 3.65842 33.392082 27.062717
2006-04-25 14:53:11 51°18.488 2°51.06 9.9623 3.659369 33.424279 26.995298
2006-04-25 14:54:11 51°18.469 2°50.967 10.0974 3.681807 33.502314 26.725623
2006-04-25 14:55:11 51°18.474 2°50.966 10.1257 3.69645 33.563411 26.86046
2006-04-25 14:56:11 51°18.481 2°50.97 10.1357 3.700347 33.584799 26.89417
2006-04-25 14:57:11 51°18.49 2°50.973 10.144 3.702033 33.590576 26.927879
2006-04-25 14:58:11 51°18.499 2°50.971 10.143 3.703086 33.594467 26.927879
2006-04-25 14:59:11 51°18.506 2°50.966 10.1428 3.703403 33.595409 26.927879
2006-04-25 15:00:11 51°18.511 2°50.962 10.1465 3.703403 33.596909 26.961589
2006-04-25 15:01:11 51°18.514 2°50.96 10.148 3.703613 33.596787 26.927879
2006-04-25 15:02:11 51°18.516 2°50.959 10.1499 3.703508 33.593474 26.927879
2006-04-25 15:03:11 51°18.516 2°50.958 10.1498 3.704035 33.598793 26.927879
2006-04-25 15:04:11 51°18.516 2°50.957 10.1543 3.70414 33.598357 26.89417
2006-04-25 15:05:11 51°18.514 2°50.955 10.1652 3.704983 33.600869 26.89417
2006-04-25 15:06:11 51°18.512 2°50.954 10.1738 3.705615 33.598255 26.89417
2006-04-25 15:07:11 51°18.501 2°50.957 10.1759 3.705615 33.59301 26.927879
2006-04-25 15:08:11 51°18.397 2°51.045 10.0122 3.703508 33.580734 26.961589
2006-04-25 15:09:11 51°18.228 2°51.208 10.0492 3.680016 33.505956 27.231264
2006-04-25 15:10:11 51°18.058 2°51.399 10.1198 3.680963 33.4503 27.029007
2006-04-25 15:11:11 51°17.885 2°51.584 10.1819 3.685703 33.421222 27.096426
2006-04-25 15:12:11 51°17.71 2°51.766 10.1849 3.68802 33.404351 27.096426
2006-04-25 15:13:11 51°17.525 2°51.93 10.0604 3.684333 33.388769 27.096426
2006-04-25 15:14:11 51°17.334 2°52.08 10.1946 3.669164 33.31609 27.029007
2006-04-25 15:15:11 51°17.144 2°52.232 10.292 3.667371 33.160081 27.062717
2006-04-25 15:16:11 51°16.962 2°52.402 10.2731 3.649355 32.91884 27.46723
2006-04-25 15:17:11 51°16.82 2°52.634 10.2406 3.629761 32.743412 27.602067
2006-04-25 15:18:11 51°16.743 2°52.932 10.2427 3.619648 32.676122 27.703195
2006-04-25 15:19:11 51°16.63 2°53.211 10.2727 3.616488 32.618997 28.040289
2006-04-25 15:20:11 51°16.547 2°53.511 10.2594 3.607744 32.516871 28.276255
2006-04-25 15:21:11 51°16.451 2°53.802 10.1849 3.592259 32.38983 28.950443
2006-04-25 15:22:11 51°16.368 2°54.06 10.2256 3.578882 32.302493 29.624631
2006-04-25 15:23:11 51°16.302 2°54.19 10.3254 3.574878 32.210686 30.26511
2006-04-25 15:24:11 51°16.248 2°54.261 10.3556 3.574877 32.139944 30.80446
2006-04-25 15:25:11 51°16.242 2°54.253 10.4208 3.577089 32.123571 30.80446
2006-04-25 15:26:11 51°16.239 2°54.243 10.432 3.581513 32.125033 30.737042
2006-04-25 15:27:11 51°16.235 2°54.236 10.4369 3.582461 32.126667 30.770751
2006-04-25 15:28:11 51°16.229 2°54.228 10.4419 3.582882 32.128025 32.051708
2006-04-25 15:29:11 51°16.223 2°54.22 10.4564 3.584041 32.129627 31.748324
2006-04-25 15:30:11 51°16.205 2°54.218 10.4752 3.585094 32.12734 31.175264
2006-04-25 15:31:11 51°16.089 2°54.233 10.5104 3.587095 32.128819 30.80446
2006-04-25 15:32:11 51°15.901 2°54.248 10.529 3.590571 32.13292 30.80446
2006-04-25 15:33:11 51°15.704 2°54.288 10.5801 3.589096 32.101261 30.568494
2006-04-25 15:34:11 51°15.507 2°54.335 10.6445 3.594889 32.112146 29.995435
2006-04-25 15:35:11 51°15.312 2°54.382 10.6855 3.604685 32.15636 29.69205
2006-04-25 15:36:11 51°15.118 2°54.437 10.7917 3.610478 32.169302 29.456084
2006-04-25 15:37:11 51°14.93 2°54.495 10.9794 3.621221 32.145351 29.489794
2006-04-25 15:38:11 51°14.749 2°54.57 10.9909 3.622484 32.053578 30.062853
2006-04-25 15:39:11 51°14.589 2°54.707 10.8275 3.609738 31.950473 31.512358
2006-04-25 15:40:11 51°14.45 2°54.882 10.7564 3.59457 31.921525 32.422512
2006-04-25 15:41:11 51°14.346 2°55.089 10.8376 3.597099 31.986337 32.759606
2006-04-25 15:42:12 51°14.253 2°55.285 10.7702 3.498085 30.95778 33.770888
2006-04-25 15:43:11 51°14.158 2°55.392 10.7797 3.41404 30.185121 32.928153
2006-04-25 15:44:11 51°14.062 2°55.458 10.7768 3.394347 29.99476 32.827024
2006-04-25 15:45:11 51°13.98 2°55.517 10.7747 3.377707 29.804444 33.939435
2006-04-25 15:46:11 51°13.905 2°55.572 10.755 3.365597 29.70876 34.478785
2006-04-25 15:47:11 51°13.834 2°55.625 10.7985 3.360543 29.665807 33.973144
2006-04-25 15:48:15 51°13.765 2°55.695 11.3092 3.332847 29.322603 32.591059
2006-04-25 15:49:15 51°13.712 2°55.779 11.5456 3.150907 27.140705 29.995435
2006-04-25 15:50:15 51°13.673 2°55.861 11.3602 3.178488 27.358881 29.860597
2006-04-25 15:51:15 51°13.64 2°55.938 11.2615 3.238815 28.044674 30.062853
2006-04-25 15:52:15 51°13.617 2°56.017 11.4078 3.259978 28.304063 30.298819
2006-04-25 15:53:15 51°13.607 2°56.08 11.5056 3.159012 27.181782 30.130272